Time;durP1;ratioP1;P1;durP2;ratioP2;P2;SDS_P1;SDS_P2;PMS_P1;PMS_P2;Temp;Humidity;BMP_temperature;BMP_pressure;BME280_temperature;BME280_humidity;BME280_pressure;Samples;Min_cycle;Max_cycle;Signal;HPM_P1;HPM_P2
2022/07/09 00:00:38;;;;;;;5.20;1.80;;;19.50;51.20;;;;;;5062177;28;20481;-69
2022/07/09 00:03:04;;;;;;;7.20;2.15;;;19.50;51.10;;;;;;5063377;28;20110;-69
2022/07/09 00:05:30;;;;;;;6.07;2.50;;;19.50;51.00;;;;;;5058891;28;20044;-70
2022/07/09 00:07:56;;;;;;;8.30;2.45;;;19.50;51.00;;;;;;5062362;28;20048;-68
2022/07/09 00:10:21;;;;;;;4.75;2.05;;;19.50;51.30;;;;;;5062986;28;20056;-69
2022/07/09 00:12:47;;;;;;;5.80;2.70;;;19.50;50.80;;;;;;5061104;28;20479;-71
2022/07/09 00:15:13;;;;;;;6.82;2.30;;;19.50;50.70;;;;;;5062758;28;20019;-70
2022/07/09 00:17:39;;;;;;;4.93;2.35;;;19.50;50.60;;;;;;5062500;28;20071;-69
2022/07/09 00:20:05;;;;;;;4.47;1.90;;;19.50;50.50;;;;;;5060967;28;20035;-71
2022/07/09 00:22:32;;;;;;;5.75;2.30;;;19.50;50.50;;;;;;5062525;28;20107;-70
2022/07/09 00:24:58;;;;;;;4.53;1.83;;;19.50;50.50;;;;;;5061481;28;20025;-69
2022/07/09 00:27:24;;;;;;;7.18;2.45;;;19.50;50.30;;;;;;5059242;28;20500;-70
2022/07/09 00:29:50;;;;;;;8.98;1.92;;;19.50;51.00;;;;;;5062756;28;20021;-69
2022/07/09 00:32:16;;;;;;;8.90;2.25;;;19.50;50.30;;;;;;5061852;28;20717;-69
2022/07/09 00:34:42;;;;;;;6.13;2.42;;;19.50;50.40;;;;;;5061102;28;20437;-70
2022/07/09 00:37:08;;;;;;;5.53;2.17;;;19.50;50.50;;;;;;5062788;28;20031;-69
2022/07/09 00:39:34;;;;;;;6.57;2.10;;;19.50;50.10;;;;;;5061457;28;20031;-71
2022/07/09 00:42:10;;;;;;;3.45;1.85;;;19.50;50.10;;;;;;5061297;28;20017;-70
2022/07/09 00:44:37;;;;;;;4.03;2.35;;;19.50;50.00;;;;;;5069379;28;20036;-70
2022/07/09 00:47:07;;;;;;;6.32;1.92;;;19.50;49.90;;;;;;5072781;28;20029;-70
2022/07/09 00:49:38;;;;;;;3.97;1.92;;;19.50;50.00;;;;;;5071918;28;20069;-70
2022/07/09 00:52:05;;;;;;;4.05;2.03;;;19.50;49.90;;;;;;5073251;28;20048;-70
2022/07/09 00:54:32;;;;;;;4.80;2.10;;;19.50;50.10;;;;;;5037206;28;20025;-70
2022/07/09 00:56:58;;;;;;;4.80;2.20;;;19.50;50.20;;;;;;5032824;28;20048;-69
2022/07/09 00:59:24;;;;;;;3.75;1.92;;;19.50;50.40;;;;;;5031898;28;20025;-69
2022/07/09 01:01:51;;;;;;;4.45;2.30;;;19.50;50.20;;;;;;5031856;28;20028;-71
2022/07/09 01:04:17;;;;;;;6.05;2.08;;;19.50;50.10;;;;;;5032807;28;20109;-70
2022/07/09 01:06:43;;;;;;;6.35;2.45;;;19.50;50.00;;;;;;5032923;28;20100;-69
2022/07/09 01:09:10;;;;;;;6.47;2.20;;;19.50;50.00;;;;;;5032846;28;20032;-69
2022/07/09 01:11:36;;;;;;;5.40;2.00;;;19.40;49.80;;;;;;5032777;28;20028;-69
2022/07/09 01:14:02;;;;;;;4.20;2.15;;;19.40;49.80;;;;;;5031604;28;20132;-69
2022/07/09 01:16:35;;;;;;;6.15;2.20;;;19.40;50.00;;;;;;5031598;28;20112;-69
2022/07/09 01:19:01;;;;;;;5.57;2.03;;;19.40;50.20;;;;;;5032934;28;20493;-71
2022/07/09 01:21:27;;;;;;;4.43;1.90;;;19.40;50.20;;;;;;5032857;28;20036;-69
2022/07/09 01:23:53;;;;;;;3.22;1.80;;;19.40;50.50;;;;;;5033251;28;20075;-69
2022/07/09 01:26:22;;;;;;;3.47;1.88;;;19.40;50.50;;;;;;5032723;28;20479;-70
2022/07/09 01:28:48;;;;;;;5.35;2.30;;;19.40;50.40;;;;;;5032634;28;20056;-70
2022/07/09 01:31:14;;;;;;;5.10;2.03;;;19.40;50.50;;;;;;5032633;28;20444;-69
2022/07/09 01:33:40;;;;;;;3.47;2.30;;;19.40;50.50;;;;;;5032628;28;20049;-71
2022/07/09 01:36:10;;;;;;;4.72;2.80;;;19.40;50.60;;;;;;5031353;28;20064;-71
2022/07/09 01:38:36;;;;;;;9.18;2.40;;;19.40;50.70;;;;;;5035129;28;20116;-71
2022/07/09 01:41:03;;;;;;;6.10;2.20;;;19.40;50.80;;;;;;5036685;28;20025;-71
2022/07/09 01:43:30;;;;;;;5.15;2.28;;;19.30;50.80;;;;;;5036549;28;20077;-70
2022/07/09 01:45:56;;;;;;;5.38;2.67;;;19.30;51.00;;;;;;5035288;28;20079;-71
2022/07/09 01:48:22;;;;;;;5.10;2.25;;;19.30;51.10;;;;;;5036467;28;20017;-69
2022/07/09 01:50:49;;;;;;;6.03;2.30;;;19.30;51.10;;;;;;5035244;28;20033;-71
2022/07/09 01:53:14;;;;;;;3.20;1.88;;;19.20;51.00;;;;;;5036273;28;20029;-70
2022/07/09 01:55:40;;;;;;;6.07;2.40;;;19.30;51.10;;;;;;5036210;28;20095;-69
2022/07/09 01:58:06;;;;;;;3.35;2.08;;;19.20;51.50;;;;;;5036391;28;20120;-69
2022/07/09 02:00:32;;;;;;;3.33;2.15;;;19.20;51.50;;;;;;5036217;28;20025;-68
2022/07/09 02:02:57;;;;;;;5.53;2.33;;;19.20;51.90;;;;;;5035785;28;20025;-70
2022/07/09 02:05:23;;;;;;;4.68;2.03;;;19.30;51.80;;;;;;5034908;28;20072;-70
2022/07/09 02:07:49;;;;;;;5.20;2.33;;;19.20;51.70;;;;;;5035097;28;20117;-69
2022/07/09 02:10:15;;;;;;;6.22;2.58;;;19.20;51.90;;;;;;5034973;28;20025;-70
2022/07/09 02:12:42;;;;;;;6.32;2.40;;;19.20;51.80;;;;;;5034892;28;20032;-71
2022/07/09 02:15:10;;;;;;;4.80;2.47;;;19.20;51.90;;;;;;5034891;28;20053;-70
2022/07/09 02:17:36;;;;;;;2.72;1.98;;;19.30;52.10;;;;;;5034822;28;20029;-69
2022/07/09 02:20:03;;;;;;;4.03;1.95;;;19.20;52.10;;;;;;5033468;28;20488;-70
2022/07/09 02:22:29;;;;;;;4.40;1.90;;;19.20;52.10;;;;;;5034652;28;20032;-69
2022/07/09 02:24:55;;;;;;;5.25;2.55;;;19.20;52.00;;;;;;5034801;28;20021;-70
2022/07/09 02:27:21;;;;;;;4.35;2.00;;;19.20;52.00;;;;;;5034745;28;20029;-69
2022/07/09 02:29:47;;;;;;;4.88;2.13;;;19.20;51.80;;;;;;5034721;28;20013;-69
2022/07/09 02:32:12;;;;;;;7.32;2.20;;;19.30;51.90;;;;;;5034718;28;20037;-70
2022/07/09 02:34:39;;;;;;;3.83;2.00;;;19.30;52.00;;;;;;5034705;28;20022;-71
2022/07/09 02:37:05;;;;;;;4.47;2.05;;;19.30;52.00;;;;;;5033330;28;20033;-69
2022/07/09 02:39:31;;;;;;;4.43;2.15;;;19.20;51.90;;;;;;5034583;28;20044;-70
2022/07/09 02:41:57;;;;;;;4.70;2.03;;;19.20;51.90;;;;;;5034498;28;20060;-69
2022/07/09 02:44:23;;;;;;;3.53;2.00;;;19.20;52.10;;;;;;5034467;28;20029;-70
2022/07/09 02:46:49;;;;;;;4.88;2.47;;;19.20;51.80;;;;;;5034654;28;20025;-70
2022/07/09 02:49:15;;;;;;;3.75;2.20;;;19.20;51.90;;;;;;5033309;28;20492;-70
2022/07/09 02:51:40;;;;;;;5.07;2.08;;;19.20;51.90;;;;;;5034205;28;20030;-69
2022/07/09 02:54:06;;;;;;;4.43;2.10;;;19.20;52.10;;;;;;5034299;28;20056;-70
2022/07/09 02:56:32;;;;;;;8.73;2.28;;;19.20;52.20;;;;;;5034065;28;20046;-69
2022/07/09 02:58:58;;;;;;;5.75;2.58;;;19.20;52.30;;;;;;5034210;28;20101;-71
2022/07/09 03:01:24;;;;;;;3.85;2.03;;;19.20;52.30;;;;;;5032951;28;20026;-72
2022/07/09 03:03:50;;;;;;;4.75;1.88;;;19.20;52.20;;;;;;5046170;28;20116;-69
2022/07/09 03:06:16;;;;;;;5.20;1.60;;;19.20;52.20;;;;;;5034973;28;20025;-70
2022/07/09 03:08:42;;;;;;;5.88;2.10;;;19.20;52.00;;;;;;5050041;28;20080;-69
2022/07/09 03:11:08;;;;;;;4.10;1.88;;;19.20;51.90;;;;;;5033923;28;20044;-69
2022/07/09 03:13:35;;;;;;;4.85;2.20;;;19.30;51.90;;;;;;5034003;28;20021;-70
2022/07/09 03:16:01;;;;;;;5.28;2.40;;;19.30;52.20;;;;;;5053290;28;20028;-71
2022/07/09 03:18:27;;;;;;;5.88;2.50;;;19.20;52.40;;;;;;5053899;28;20158;-69
2022/07/09 03:20:52;;;;;;;3.50;2.10;;;19.30;53.00;;;;;;5053296;28;20483;-72
2022/07/09 03:23:18;;;;;;;5.00;2.47;;;19.20;52.90;;;;;;5050936;28;20036;-69
2022/07/09 03:25:44;;;;;;;3.70;1.95;;;19.20;53.00;;;;;;5055329;28;20124;-69
2022/07/09 03:28:10;;;;;;;5.65;2.15;;;19.20;52.90;;;;;;5054477;28;20072;-70
2022/07/09 03:30:36;;;;;;;2.88;2.00;;;19.20;52.80;;;;;;5053616;28;20103;-70
2022/07/09 03:33:02;;;;;;;9.27;3.35;;;19.20;52.90;;;;;;5037582;28;20030;-69
2022/07/09 03:35:28;;;;;;;6.32;2.20;;;19.20;53.10;;;;;;5032428;28;20383;-71
2022/07/09 03:37:54;;;;;;;3.95;2.25;;;19.20;54.00;;;;;;5032294;28;20053;-69
2022/07/09 03:40:20;;;;;;;4.47;2.00;;;19.20;53.50;;;;;;5032298;28;20029;-70
2022/07/09 03:42:46;;;;;;;4.18;2.20;;;19.10;53.50;;;;;;5033300;28;20032;-70
2022/07/09 03:45:12;;;;;;;5.13;2.45;;;19.20;53.60;;;;;;5047486;28;20033;-70
2022/07/09 03:47:38;;;;;;;6.60;2.58;;;19.10;53.60;;;;;;5051826;28;20079;-69
2022/07/09 03:50:05;;;;;;;6.00;2.42;;;19.10;53.60;;;;;;5036356;28;20404;-69
2022/07/09 03:52:30;;;;;;;2.58;1.85;;;19.10;53.60;;;;;;5046061;28;20083;-70
2022/07/09 03:54:56;;;;;;;6.43;1.92;;;19.20;53.80;;;;;;5052920;28;20033;-71
2022/07/09 03:57:22;;;;;;;3.95;1.85;;;19.20;53.90;;;;;;5048180;28;20529;-71
2022/07/09 03:59:48;;;;;;;6.53;2.83;;;19.20;53.80;;;;;;5032654;28;20025;-69
2022/07/09 04:02:13;;;;;;;2.55;2.05;;;19.20;53.90;;;;;;5031508;28;20069;-70
2022/07/09 04:04:40;;;;;;;11.02;2.63;;;19.20;53.90;;;;;;5032890;28;20028;-70
2022/07/09 04:07:06;;;;;;;3.60;1.90;;;19.30;53.90;;;;;;5031742;28;20030;-70
2022/07/09 04:09:33;;;;;;;6.40;1.80;;;19.30;53.80;;;;;;5031576;28;20518;-70
2022/07/09 04:11:59;;;;;;;3.00;1.80;;;19.30;53.70;;;;;;5032713;28;20045;-70
2022/07/09 04:14:25;;;;;;;4.47;1.73;;;19.40;53.60;;;;;;5031453;28;20087;-68
2022/07/09 04:16:50;;;;;;;3.90;2.00;;;19.40;53.30;;;;;;5032473;28;20036;-71
2022/07/09 04:19:16;;;;;;;4.55;1.85;;;19.50;53.20;;;;;;5032809;28;20030;-71
2022/07/09 04:21:42;;;;;;;5.40;2.13;;;19.50;53.10;;;;;;5033069;28;20060;-69
2022/07/09 04:24:08;;;;;;;5.28;2.20;;;19.60;53.00;;;;;;5035289;28;20041;-70
2022/07/09 04:26:33;;;;;;;3.70;2.20;;;19.60;52.80;;;;;;5060615;28;20017;-71
2022/07/09 04:28:59;;;;;;;6.03;2.40;;;19.70;53.40;;;;;;5060882;28;20075;-70
2022/07/09 04:31:25;;;;;;;4.20;1.90;;;19.70;52.70;;;;;;5062825;28;20100;-70
2022/07/09 04:33:51;;;;;;;4.38;1.77;;;19.80;52.50;;;;;;5056662;28;20439;-69
2022/07/09 04:36:16;;;;;;;6.55;2.20;;;19.80;52.50;;;;;;5062738;28;20029;-70
2022/07/09 04:38:42;;;;;;;8.60;2.50;;;19.80;52.50;;;;;;5060761;28;20029;-69
2022/07/09 04:41:08;;;;;;;7.22;2.28;;;19.80;52.40;;;;;;5062116;28;20086;-69
2022/07/09 04:43:34;;;;;;;10.02;2.15;;;19.90;52.50;;;;;;5061336;28;20033;-70
2022/07/09 04:46:00;;;;;;;6.93;2.33;;;19.80;52.60;;;;;;5058064;28;20083;-70
2022/07/09 04:48:26;;;;;;;5.60;2.50;;;19.80;52.70;;;;;;5060636;28;20108;-71
2022/07/09 04:50:52;;;;;;;3.47;1.90;;;19.80;52.90;;;;;;5059505;28;20453;-71
2022/07/09 04:53:17;;;;;;;3.63;1.98;;;19.80;53.60;;;;;;5056186;28;20085;-69
2022/07/09 04:55:43;;;;;;;5.60;2.20;;;19.80;53.00;;;;;;5061226;28;20021;-70
2022/07/09 04:58:09;;;;;;;2.97;2.10;;;19.80;53.20;;;;;;5061361;28;20028;-69
2022/07/09 05:00:35;;;;;;;5.05;2.55;;;19.80;53.20;;;;;;5060959;28;20035;-69
2022/07/09 05:03:02;;;;;;;4.50;1.88;;;19.80;53.20;;;;;;5059687;28;20382;-70
2022/07/09 05:05:28;;;;;;;7.30;2.22;;;19.80;53.00;;;;;;5061885;28;20099;-70
2022/07/09 05:07:54;;;;;;;7.82;1.83;;;19.80;53.00;;;;;;5059256;28;20490;-69
2022/07/09 05:10:20;;;;;;;4.97;2.20;;;19.90;53.00;;;;;;5060535;28;20020;-69
2022/07/09 05:12:46;;;;;;;7.68;2.30;;;19.90;52.90;;;;;;5060093;28;20029;-69
2022/07/09 05:15:13;;;;;;;13.27;3.20;;;19.90;52.70;;;;;;5060439;28;20016;-71
2022/07/09 05:17:40;;;;;;;7.32;2.55;;;20.00;52.70;;;;;;5062291;28;20089;-70
2022/07/09 05:20:08;;;;;;;6.20;2.38;;;20.00;52.60;;;;;;5059394;28;20100;-69
2022/07/09 05:22:35;;;;;;;10.85;2.50;;;20.10;52.50;;;;;;5061090;28;20167;-71
2022/07/09 05:25:03;;;;;;;4.63;2.20;;;20.20;52.40;;;;;;5062283;28;20016;-71
2022/07/09 05:27:28;;;;;;;5.57;2.10;;;20.30;52.40;;;;;;5058907;28;20033;-70
2022/07/09 05:29:54;;;;;;;8.50;2.40;;;20.30;52.10;;;;;;5060691;28;20028;-71
2022/07/09 05:32:20;;;;;;;8.43;2.50;;;20.40;52.20;;;;;;5060939;28;20104;-69
2022/07/09 05:34:46;;;;;;;5.00;2.40;;;20.50;52.20;;;;;;5059210;28;20387;-71
2022/07/09 05:37:12;;;;;;;7.13;2.00;;;20.50;52.20;;;;;;5061711;28;20016;-69
2022/07/09 05:39:38;;;;;;;6.43;2.42;;;20.60;52.10;;;;;;5062102;28;20017;-71
2022/07/09 05:42:04;;;;;;;4.35;2.10;;;20.70;52.10;;;;;;5057611;28;20028;-71
2022/07/09 05:44:30;;;;;;;9.70;2.85;;;20.80;52.00;;;;;;5058264;28;20017;-69
2022/07/09 05:46:56;;;;;;;7.28;2.45;;;20.80;51.90;;;;;;5060984;28;20137;-71
2022/07/09 05:49:22;;;;;;;4.10;2.35;;;20.90;51.70;;;;;;5072372;28;20542;-70
2022/07/09 05:51:48;;;;;;;7.25;2.63;;;21.00;51.60;;;;;;5048564;28;20021;-70
2022/07/09 05:54:14;;;;;;;10.23;2.47;;;21.10;51.40;;;;;;5030327;28;20068;-69
2022/07/09 05:56:41;;;;;;;4.53;1.95;;;21.10;51.20;;;;;;5031332;28;20045;-70
2022/07/09 05:59:07;;;;;;;6.93;2.03;;;21.20;50.90;;;;;;5031395;28;20025;-70
2022/07/09 06:01:38;;;;;;;3.75;1.98;;;21.30;50.50;;;;;;5051885;28;20029;-70
2022/07/09 06:04:04;;;;;;;3.63;2.22;;;21.40;50.40;;;;;;5058585;28;20474;-70
2022/07/09 06:06:30;;;;;;;7.88;2.30;;;21.40;50.20;;;;;;5058842;28;20035;-71
2022/07/09 06:08:56;;;;;;;7.18;2.83;;;21.60;50.00;;;;;;5058449;28;20116;-70
2022/07/09 06:11:22;;;;;;;4.03;2.13;;;21.60;49.60;;;;;;5031705;28;20025;-71
2022/07/09 06:13:48;;;;;;;4.57;2.30;;;21.70;49.50;;;;;;5031557;28;20037;-71
2022/07/09 06:16:14;;;;;;;4.70;1.90;;;21.80;49.30;;;;;;5031591;28;20395;-71
2022/07/09 06:18:40;;;;;;;4.75;2.10;;;21.90;49.00;;;;;;5030118;28;20033;-71
2022/07/09 06:21:06;;;;;;;4.68;2.20;;;22.00;48.80;;;;;;5031531;28;20033;-70
2022/07/09 06:23:32;;;;;;;5.80;2.20;;;22.10;48.60;;;;;;5033121;28;20025;-72
2022/07/09 06:25:58;;;;;;;4.07;1.90;;;22.10;48.40;;;;;;5035151;28;20017;-71
2022/07/09 06:28:23;;;;;;;4.60;2.17;;;22.20;48.40;;;;;;5034960;28;20433;-72
2022/07/09 06:30:49;;;;;;;5.80;2.60;;;22.30;48.30;;;;;;5033668;28;20041;-72
2022/07/09 06:33:15;;;;;;;6.10;2.03;;;22.40;48.00;;;;;;5038023;28;20116;-71
2022/07/09 06:35:41;;;;;;;5.20;2.45;;;22.50;48.00;;;;;;5034708;28;20040;-70
2022/07/09 06:38:06;;;;;;;14.20;2.17;;;22.50;47.80;;;;;;5034464;28;20021;-72
2022/07/09 06:40:34;;;;;;;8.02;2.00;;;22.60;47.50;;;;;;5034603;28;20041;-72
2022/07/09 06:42:59;;;;;;;6.07;2.00;;;22.70;47.30;;;;;;5034675;28;20050;-70
2022/07/09 06:45:25;;;;;;;3.53;2.20;;;22.70;47.10;;;;;;5034531;28;20573;-72
2022/07/09 06:47:52;;;;;;;4.80;2.08;;;22.70;46.60;;;;;;5034583;28;20491;-71
2022/07/09 06:50:19;;;;;;;3.22;1.88;;;22.70;46.30;;;;;;5034538;28;20025;-71
2022/07/09 06:52:44;;;;;;;9.95;2.17;;;22.70;46.20;;;;;;5048882;28;20447;-71
2022/07/09 06:55:10;;;;;;;4.55;2.28;;;22.80;46.60;;;;;;5054375;28;20064;-71
2022/07/09 06:57:37;;;;;;;5.70;2.00;;;22.70;46.00;;;;;;5054183;28;20086;-71
2022/07/09 07:00:07;;;;;;;6.05;2.08;;;22.70;45.90;;;;;;5053083;28;20079;-71
2022/07/09 07:02:33;;;;;;;5.03;2.35;;;22.80;46.30;;;;;;5050230;28;20075;-70
2022/07/09 07:04:58;;;;;;;9.77;2.38;;;22.70;46.10;;;;;;5034126;28;20379;-73
2022/07/09 07:07:24;;;;;;;4.60;1.95;;;22.80;46.60;;;;;;5032582;28;20028;-70
2022/07/09 07:09:50;;;;;;;3.08;1.77;;;22.90;46.30;;;;;;5034043;28;20133;-70
2022/07/09 07:12:16;;;;;;;4.97;2.22;;;23.10;46.30;;;;;;5050615;28;20021;-70
2022/07/09 07:14:42;;;;;;;4.57;1.63;;;23.20;46.30;;;;;;5052278;28;20020;-73
2022/07/09 07:17:08;;;;;;;7.10;1.98;;;23.30;45.90;;;;;;5033245;28;20091;-71
2022/07/09 07:19:34;;;;;;;5.97;2.00;;;23.40;45.30;;;;;;5032428;28;20030;-71
2022/07/09 07:22:00;;;;;;;5.25;2.60;;;23.50;45.30;;;;;;5033632;28;20028;-71
2022/07/09 07:24:26;;;;;;;6.07;2.08;;;23.50;45.00;;;;;;5033512;28;20026;-70
2022/07/09 07:26:52;;;;;;;9.65;1.80;;;23.60;45.10;;;;;;5053055;28;20056;-71
2022/07/09 07:29:17;;;;;;;6.13;1.92;;;23.70;44.90;;;;;;5052456;28;20173;-73
2022/07/09 07:31:43;;;;;;;4.43;2.00;;;23.70;44.10;;;;;;5053802;28;20025;-71
2022/07/09 07:34:09;;;;;;;3.67;1.75;;;23.80;44.50;;;;;;5053328;28;20029;-71
2022/07/09 07:36:35;;;;;;;4.78;1.98;;;23.90;44.20;;;;;;5053476;28;20082;-70
2022/07/09 07:39:01;;;;;;;5.28;2.15;;;24.00;44.10;;;;;;5053618;28;20021;-71
2022/07/09 07:41:26;;;;;;;7.55;2.13;;;24.10;43.90;;;;;;5053476;28;20047;-70
2022/07/09 07:43:52;;;;;;;5.80;2.40;;;24.20;43.50;;;;;;5042669;28;20025;-71
2022/07/09 07:46:18;;;;;;;7.38;1.90;;;24.20;42.80;;;;;;5033640;28;20100;-71
2022/07/09 07:48:44;;;;;;;4.15;1.95;;;24.30;43.00;;;;;;5032214;28;20022;-71
2022/07/09 07:51:10;;;;;;;6.35;2.25;;;24.40;42.80;;;;;;5034940;28;20021;-70
2022/07/09 07:53:36;;;;;;;4.22;1.98;;;24.50;42.30;;;;;;5038354;28;21223;-71
2022/07/09 07:56:03;;;;;;;4.78;1.80;;;24.60;42.00;;;;;;5034934;28;20082;-70
2022/07/09 07:58:29;;;;;;;7.18;1.90;;;24.80;42.20;;;;;;5035096;28;20029;-70
2022/07/09 08:00:55;;;;;;;4.28;1.67;;;25.00;41.50;;;;;;5033146;28;20117;-71
2022/07/09 08:03:20;;;;;;;7.43;2.35;;;25.20;41.20;;;;;;5033069;28;20383;-71
2022/07/09 08:05:46;;;;;;;2.55;1.90;;;25.30;40.70;;;;;;5033075;28;20025;-70
2022/07/09 08:08:13;;;;;;;11.00;2.08;;;25.40;40.80;;;;;;5031613;28;20034;-69
2022/07/09 08:10:38;;;;;;;5.88;2.05;;;25.50;40.00;;;;;;5031855;28;20037;-69
2022/07/09 08:13:04;;;;;;;5.90;1.92;;;25.70;40.00;;;;;;5032995;28;20026;-69
2022/07/09 08:15:30;;;;;;;5.80;2.08;;;25.80;40.10;;;;;;5048351;28;20386;-71
2022/07/09 08:17:56;;;;;;;6.72;2.03;;;25.90;39.00;;;;;;5032768;28;20470;-70
2022/07/09 08:20:22;;;;;;;4.82;2.05;;;26.00;39.30;;;;;;5052922;28;20059;-72
2022/07/09 08:22:48;;;;;;;3.30;1.80;;;26.20;39.20;;;;;;5062017;28;20033;-71
2022/07/09 08:25:14;;;;;;;3.03;1.65;;;26.30;38.70;;;;;;5060813;28;20028;-71
2022/07/09 08:27:40;;;;;;;4.43;1.85;;;26.40;38.20;;;;;;5061834;28;20039;-71
2022/07/09 08:30:06;;;;;;;3.70;1.67;;;26.50;38.10;;;;;;5061417;28;20017;-70
2022/07/09 08:32:32;;;;;;;5.85;2.05;;;26.60;38.50;;;;;;5061598;28;20473;-71
2022/07/09 08:34:58;;;;;;;4.20;1.95;;;26.70;37.90;;;;;;5062995;28;20085;-71
2022/07/09 08:37:23;;;;;;;4.07;2.00;;;26.80;38.10;;;;;;5059625;28;20021;-71
2022/07/09 08:39:49;;;;;;;2.97;1.95;;;26.90;38.30;;;;;;5051664;28;20044;-70
2022/07/09 08:42:16;;;;;;;4.68;1.85;;;27.00;38.00;;;;;;5058362;28;20114;-70
2022/07/09 08:44:46;;;;;;;4.25;2.10;;;27.20;37.90;;;;;;5058424;28;20025;-71
2022/07/09 08:47:14;;;;;;;4.30;1.90;;;27.30;37.00;;;;;;5060171;28;20545;-72
2022/07/09 08:49:40;;;;;;;6.13;1.75;;;27.30;37.20;;;;;;5062614;28;20028;-70
2022/07/09 08:52:07;;;;;;;4.70;2.17;;;27.40;37.50;;;;;;5061162;28;20024;-71
2022/07/09 08:54:39;;;;;;;4.18;1.90;;;27.50;37.10;;;;;;5059386;28;20032;-71
2022/07/09 08:57:05;;;;;;;5.07;2.58;;;27.70;37.40;;;;;;5060226;28;20127;-71
2022/07/09 08:59:32;;;;;;;4.68;1.98;;;27.80;36.50;;;;;;5060557;28;20028;-70
2022/07/09 09:02:02;;;;;;;6.70;2.10;;;27.90;36.30;;;;;;5058712;28;20024;-71
2022/07/09 09:04:28;;;;;;;5.47;1.95;;;27.90;35.90;;;;;;5057398;28;20486;-71
2022/07/09 09:06:54;;;;;;;5.95;2.10;;;27.90;35.60;;;;;;5058811;28;20032;-71
2022/07/09 09:09:20;;;;;;;6.30;2.00;;;28.00;35.90;;;;;;5053910;28;20032;-70
2022/07/09 09:11:50;;;;;;;5.55;2.10;;;28.00;35.90;;;;;;5061677;28;20449;-70
2022/07/09 09:14:25;;;;;;;4.05;1.80;;;28.10;36.00;;;;;;5057891;28;20021;-71
2022/07/09 09:16:51;;;;;;;3.28;2.00;;;28.10;35.60;;;;;;5057289;28;20035;-71
2022/07/09 09:19:17;;;;;;;4.15;1.95;;;28.20;35.80;;;;;;5061236;28;20115;-71
2022/07/09 09:21:43;;;;;;;4.10;1.90;;;28.30;35.80;;;;;;5058581;28;20085;-70
2022/07/09 09:24:08;;;;;;;6.40;2.45;;;28.40;35.20;;;;;;5060032;28;20020;-69
2022/07/09 09:26:35;;;;;;;6.97;2.20;;;28.50;35.10;;;;;;5057805;28;20036;-70
2022/07/09 09:29:03;;;;;;;9.68;2.55;;;28.50;34.50;;;;;;5050308;28;20027;-68
2022/07/09 09:31:33;;;;;;;8.95;2.22;;;28.40;34.80;;;;;;5058783;28;20024;-68
2022/07/09 09:34:15;;;;;;;7.80;2.03;;;28.30;34.40;;;;;;5057966;28;20017;-69
2022/07/09 09:36:43;;;;;;;7.60;2.70;;;28.10;34.70;;;;;;5058244;28;20103;-68
2022/07/09 09:39:21;;;;;;;4.75;3.35;;;28.00;34.90;;;;;;5060988;28;20025;-68
2022/07/09 09:42:13;;;;;;;4.70;2.00;;;27.70;34.90;;;;;;5058071;28;20028;-69
2022/07/09 09:44:42;;;;;;;8.25;2.45;;;27.40;35.50;;;;;;5060408;28;20025;-69
2022/07/09 09:47:08;;;;;;;4.63;2.10;;;27.20;35.70;;;;;;5060638;28;20505;-70
2022/07/09 09:49:40;;;;;;;6.75;1.88;;;27.00;36.50;;;;;;5061982;28;20107;-69
2022/07/09 09:52:10;;;;;;;4.47;1.70;;;26.70;36.20;;;;;;5061057;28;20017;-71
2022/07/09 09:54:38;;;;;;;3.63;1.83;;;26.60;37.00;;;;;;5059936;28;20027;-70
2022/07/09 09:57:09;;;;;;;2.20;1.65;;;26.50;36.90;;;;;;5058524;28;20049;-68
2022/07/09 09:59:37;;;;;;;3.22;1.67;;;26.40;37.60;;;;;;5050457;28;20376;-70
2022/07/09 10:02:11;;;;;;;4.32;1.98;;;26.40;37.80;;;;;;5046191;28;20040;-70
2022/07/09 10:04:38;;;;;;;8.63;2.47;;;26.50;37.90;;;;;;5044050;28;20022;-70
2022/07/09 10:07:05;;;;;;;6.35;1.92;;;26.60;37.60;;;;;;5056284;28;20398;-70
2022/07/09 10:09:31;;;;;;;4.13;2.30;;;26.70;37.50;;;;;;5064276;28;20023;-70
2022/07/09 10:11:56;;;;;;;6.07;2.22;;;26.80;37.30;;;;;;5065485;28;20020;-69
2022/07/09 10:14:28;;;;;;;6.82;1.90;;;26.90;37.00;;;;;;5066856;28;20021;-69
2022/07/09 10:16:54;;;;;;;4.07;2.10;;;27.00;36.90;;;;;;5075827;28;20033;-70
2022/07/09 10:19:32;;;;;;;4.00;1.83;;;27.20;37.50;;;;;;5071563;28;20385;-69
2022/07/09 10:21:59;;;;;;;2.85;1.60;;;27.40;36.70;;;;;;5063084;28;20024;-70
2022/07/09 10:24:33;;;;;;;5.07;1.50;;;27.60;35.80;;;;;;5060686;28;20494;-70
2022/07/09 10:27:10;;;;;;;5.38;2.30;;;27.70;35.50;;;;;;5062648;28;20474;-68
2022/07/09 10:29:51;;;;;;;3.80;1.58;;;27.90;35.00;;;;;;5065977;28;20043;-68
2022/07/09 10:32:32;;;;;;;5.57;1.88;;;27.90;34.40;;;;;;5066948;28;20377;-70
2022/07/09 10:34:59;;;;;;;4.80;2.17;;;27.90;35.00;;;;;;5064209;28;20021;-68
2022/07/09 10:37:44;;;;;;;5.45;1.85;;;28.00;34.40;;;;;;5075616;28;20025;-69
2022/07/09 10:40:18;;;;;;;4.53;1.55;;;27.80;34.80;;;;;;5046136;28;20022;-70
2022/07/09 10:42:44;;;;;;;;;;;27.70;34.80;;;;;;5061203;28;20107;-71
2022/07/09 10:45:45;;;;;;;6.15;1.65;;;27.70;35.50;;;;;;5065399;28;19979;-70
2022/07/09 10:48:14;;;;;;;2.08;1.20;;;27.60;35.20;;;;;;5054259;28;20025;-68
2022/07/09 10:50:46;;;;;;;2.97;1.67;;;27.50;35.40;;;;;;5055538;28;20021;-70
2022/07/09 10:53:12;;;;;;;5.80;1.80;;;27.40;35.60;;;;;;5055379;28;20021;-72
2022/07/09 10:55:43;;;;;;;3.83;1.63;;;27.40;35.70;;;;;;5055066;28;20082;-68
2022/07/09 10:58:19;;;;;;;3.22;1.63;;;27.30;36.00;;;;;;5059930;28;20035;-69
2022/07/09 11:00:57;;;;;;;2.65;1.48;;;27.30;35.60;;;;;;5060367;28;20056;-71
2022/07/09 11:03:27;;;;;;;4.70;1.60;;;27.20;35.80;;;;;;5059760;28;20025;-69
2022/07/09 11:05:53;;;;;;;3.53;1.60;;;27.10;35.50;;;;;;5062887;28;20099;-70
2022/07/09 11:08:19;;;;;;;6.40;1.70;;;27.10;35.70;;;;;;5059992;28;20021;-69
2022/07/09 11:10:45;;;;;;;3.13;1.48;;;27.00;35.30;;;;;;5061438;28;20028;-69
2022/07/09 11:13:11;;;;;;;1.65;1.25;;;27.00;35.70;;;;;;5064199;28;20032;-70
2022/07/09 11:15:38;;;;;;;3.70;1.40;;;26.90;36.30;;;;;;5062382;28;20102;-69
2022/07/09 11:18:15;;;;;;;2.90;1.25;;;26.80;36.40;;;;;;5063859;28;20020;-69
2022/07/09 11:20:45;;;;;;;4.05;1.60;;;26.80;36.70;;;;;;5064263;28;20021;-71
2022/07/09 11:23:16;;;;;;;2.85;1.40;;;26.80;36.20;;;;;;5063981;28;20017;-71
2022/07/09 11:25:46;;;;;;;2.60;1.40;;;26.90;35.70;;;;;;5058829;28;20025;-71
2022/07/09 11:28:23;;;;;;;3.10;1.60;;;27.00;35.40;;;;;;5062671;28;20031;-68
2022/07/09 11:30:59;;;;;;;2.97;1.42;;;27.10;35.90;;;;;;5062123;28;20100;-71
2022/07/09 11:33:26;;;;;;;3.80;1.35;;;27.20;36.10;;;;;;5059801;28;20025;-71
2022/07/09 11:35:51;;;;;;;3.20;1.48;;;27.40;35.60;;;;;;5062460;28;20033;-70
2022/07/09 11:38:17;;;;;;;4.80;1.60;;;27.50;35.00;;;;;;5061730;28;20074;-71
2022/07/09 11:40:44;;;;;;;2.55;1.40;;;27.60;34.80;;;;;;5062506;28;20029;-69
2022/07/09 11:43:16;;;;;;;1.60;1.17;;;27.80;35.20;;;;;;5062479;28;20355;-68
2022/07/09 11:45:53;;;;;;;3.15;1.20;;;27.90;34.90;;;;;;5059979;28;20438;-70
2022/07/09 11:48:18;;;;;;;2.03;1.40;;;28.20;34.80;;;;;;5061815;28;20027;-70
2022/07/09 11:50:46;;;;;;;2.10;1.35;;;28.40;33.60;;;;;;5063227;28;20025;-69
2022/07/09 11:53:27;;;;;;;5.82;1.90;;;28.50;33.40;;;;;;5063741;28;20021;-69
2022/07/09 11:56:01;;;;;;;2.05;1.20;;;28.70;33.40;;;;;;5063087;28;20417;-71
2022/07/09 11:58:28;;;;;;;3.85;1.60;;;28.80;32.90;;;;;;5061606;28;20025;-70
2022/07/09 12:00:54;;;;;;;5.95;2.10;;;28.90;32.90;;;;;;5060655;28;20127;-70
2022/07/09 12:03:24;;;;;;;3.03;1.42;;;29.10;33.10;;;;;;5059048;28;20466;-71
2022/07/09 12:05:50;;;;;;;2.50;1.73;;;29.30;32.80;;;;;;5061142;28;20082;-70
2022/07/09 12:08:27;;;;;;;4.78;1.75;;;29.40;32.60;;;;;;5062453;28;20017;-70
2022/07/09 12:10:53;;;;;;;7.90;1.80;;;29.60;32.80;;;;;;5063537;28;20020;-68
2022/07/09 12:13:19;;;;;;;1.67;1.45;;;29.90;32.30;;;;;;5061581;28;20374;-69
2022/07/09 12:15:45;;;;;;;1.50;1.40;;;30.10;32.40;;;;;;5062814;28;20078;-71
2022/07/09 12:18:10;;;;;;;2.80;1.40;;;30.20;32.00;;;;;;5061798;28;20028;-69
2022/07/09 12:20:36;;;;;;;2.05;1.30;;;30.40;31.50;;;;;;5061157;28;20029;-71
2022/07/09 12:23:02;;;;;;;1.45;1.35;;;30.50;30.90;;;;;;5063173;28;20352;-70
2022/07/09 12:25:28;;;;;;;2.35;1.45;;;30.60;30.40;;;;;;5062530;28;20021;-69
2022/07/09 12:27:54;;;;;;;2.58;1.50;;;30.60;30.30;;;;;;5061434;28;20025;-71
2022/07/09 12:30:20;;;;;;;2.83;1.50;;;30.60;30.20;;;;;;5057377;28;20024;-71
2022/07/09 12:32:46;;;;;;;3.80;2.13;;;30.60;29.60;;;;;;5062358;28;20099;-70
2022/07/09 12:35:12;;;;;;;3.67;2.03;;;30.60;29.60;;;;;;5062703;28;20024;-69
2022/07/09 12:37:39;;;;;;;2.47;1.50;;;30.60;29.80;;;;;;5059732;28;20028;-68
2022/07/09 12:40:07;;;;;;;4.53;1.33;;;30.50;29.20;;;;;;5062476;28;20082;-70
2022/07/09 12:42:33;;;;;;;2.47;1.23;;;30.30;28.50;;;;;;5060686;28;20047;-69
2022/07/09 12:44:59;;;;;;;3.00;1.60;;;30.00;29.30;;;;;;5062139;28;20017;-69
2022/07/09 12:47:25;;;;;;;3.05;1.70;;;29.90;29.70;;;;;;5060831;28;20379;-70